createdAt,value
2023-01-17T00:01:54.008Z,4.32
2023-01-17T00:04:38.746Z,6.20
2023-01-17T00:07:23.487Z,8.45
2023-01-17T00:09:58.705Z,10.82
2023-01-17T00:12:26.021Z,5.38
2023-01-17T00:14:53.706Z,8.30
2023-01-17T00:17:20.356Z,10.98
2023-01-17T00:20:05.421Z,14.02
2023-01-17T00:22:50.179Z,5.95
2023-01-17T00:25:36.563Z,8.13
2023-01-17T00:28:03.329Z,8.98
2023-01-17T00:30:29.777Z,4.88
2023-01-17T00:32:56.023Z,10.95
2023-01-17T00:35:22.757Z,12.73
2023-01-17T00:37:49.299Z,10.05
2023-01-17T00:40:15.800Z,7.85
2023-01-17T00:42:42.046Z,10.90
2023-01-17T00:45:27.411Z,7.53
2023-01-17T00:48:12.171Z,11.63
2023-01-17T00:50:56.942Z,6.85
2023-01-17T00:53:41.559Z,4.40
2023-01-17T00:56:26.743Z,4.95
2023-01-17T00:59:14.151Z,1.67
2023-01-17T01:01:59.124Z,2.63
2023-01-17T01:04:44.107Z,5.90
2023-01-17T01:07:30.067Z,3.25
2023-01-17T01:10:14.949Z,1.85
2023-01-17T01:12:59.749Z,0.50
2023-01-17T01:15:44.407Z,1.65
2023-01-17T01:18:30.280Z,2.95
2023-01-17T01:21:20.188Z,1.35
2023-01-17T01:24:04.868Z,0.93
2023-01-17T01:26:49.625Z,1.38
2023-01-17T01:29:34.439Z,3.05
2023-01-17T01:32:19.160Z,6.35
2023-01-17T01:34:45.407Z,2.45
2023-01-17T01:37:11.730Z,4.43
2023-01-17T01:39:38.021Z,2.22
2023-01-17T01:42:14.487Z,3.47
2023-01-17T01:44:45.521Z,2.70
2023-01-17T01:47:12.972Z,1.25
2023-01-17T01:49:39.217Z,0.20
2023-01-17T01:52:06.599Z,5.70
2023-01-17T01:54:37.821Z,6.45
2023-01-17T01:57:06.503Z,1.95
2023-01-17T01:59:33.540Z,1.42
2023-01-17T02:01:59.813Z,1.63
2023-01-17T02:04:27.585Z,3.00
2023-01-17T02:06:58.409Z,3.65
2023-01-17T02:09:24.862Z,2.78
2023-01-17T02:11:51.201Z,0.93
2023-01-17T02:14:18.331Z,1.23
2023-01-17T02:16:57.478Z,1.58
2023-01-17T02:19:42.433Z,1.90
2023-01-17T02:22:08.636Z,0.32
2023-01-17T02:24:53.860Z,1.33
2023-01-17T02:27:35.470Z,7.22
2023-01-17T02:30:20.753Z,6.28
2023-01-17T02:32:47.032Z,5.03
2023-01-17T02:35:17.164Z,5.07
2023-01-17T02:37:55.449Z,5.35
2023-01-17T02:40:48.060Z,10.38
2023-01-17T02:43:15.752Z,2.63
2023-01-17T02:45:42.138Z,4.85
2023-01-17T02:48:09.564Z,5.63
2023-01-17T02:50:47.633Z,3.88
2023-01-17T02:53:26.073Z,7.72
2023-01-17T02:56:17.886Z,8.73
2023-01-17T02:59:04.439Z,4.63
2023-01-17T03:01:36.802Z,7.00
2023-01-17T03:04:03.100Z,6.03
2023-01-17T03:06:33.443Z,3.22
2023-01-17T03:09:00.118Z,5.20
2023-01-17T03:11:27.411Z,7.10
2023-01-17T03:13:59.507Z,10.18
2023-01-17T03:16:27.396Z,12.90
2023-01-17T03:18:56.720Z,4.75
2023-01-17T03:21:23.637Z,5.55
2023-01-17T03:23:49.907Z,9.10
2023-01-17T03:26:16.194Z,6.07
2023-01-17T03:28:42.531Z,7.07
2023-01-17T03:31:08.839Z,8.88
2023-01-17T03:33:35.126Z,10.98
2023-01-17T03:36:01.382Z,4.28
2023-01-17T03:38:28.434Z,7.75
2023-01-17T03:40:54.851Z,7.30
2023-01-17T03:43:21.251Z,3.42
2023-01-17T03:45:52.013Z,6.35
2023-01-17T03:48:18.609Z,5.80
2023-01-17T03:50:44.884Z,8.38
2023-01-17T03:53:11.154Z,9.05
2023-01-17T03:55:37.367Z,7.88
2023-01-17T03:58:03.664Z,4.93
2023-01-17T04:00:30.178Z,12.77
2023-01-17T04:02:56.470Z,10.10
2023-01-17T04:05:22.705Z,6.95
2023-01-17T04:07:48.980Z,3.75
2023-01-17T04:10:15.321Z,8.13
2023-01-17T04:12:41.723Z,6.53
2023-01-17T04:15:08.127Z,4.57
2023-01-17T04:17:34.450Z,8.50
2023-01-17T04:20:00.711Z,6.38
2023-01-17T04:22:27.037Z,5.75
2023-01-17T04:24:53.314Z,12.88
2023-01-17T04:27:19.592Z,7.03
2023-01-17T04:29:46.827Z,5.57
2023-01-17T04:32:13.134Z,10.82
2023-01-17T04:34:39.460Z,4.82
2023-01-17T04:37:05.785Z,2.10
2023-01-17T04:39:32.091Z,8.65
2023-01-17T04:41:58.381Z,4.43
2023-01-17T04:44:24.687Z,4.68
2023-01-17T04:46:50.959Z,9.82
2023-01-17T04:49:17.250Z,5.95
2023-01-17T04:51:43.528Z,5.38
2023-01-17T04:54:09.807Z,4.95
2023-01-17T04:56:36.105Z,6.50
2023-01-17T04:59:02.392Z,5.68
2023-01-17T05:01:28.768Z,3.35
2023-01-17T05:03:55.119Z,1.85
2023-01-17T05:06:21.404Z,7.93
2023-01-17T05:08:47.771Z,7.63
2023-01-17T05:11:14.108Z,10.18
2023-01-17T05:13:40.333Z,4.72
2023-01-17T05:16:06.749Z,6.72
2023-01-17T05:18:33.019Z,4.05
2023-01-17T05:21:02.919Z,7.05
2023-01-17T05:23:29.296Z,7.30
2023-01-17T05:25:55.614Z,5.88
2023-01-17T05:28:21.893Z,6.28
2023-01-17T05:30:48.211Z,6.13
2023-01-17T05:33:14.451Z,5.05
2023-01-17T05:35:40.735Z,4.35
2023-01-17T05:38:07.143Z,7.57
2023-01-17T05:40:33.816Z,5.35
2023-01-17T05:43:00.736Z,8.35
2023-01-17T05:45:27.988Z,8.48
2023-01-17T05:47:55.120Z,5.15
2023-01-17T05:50:23.082Z,6.05
2023-01-17T05:52:53.448Z,7.85
2023-01-17T05:55:20.410Z,11.02
2023-01-17T05:57:46.977Z,11.93
2023-01-17T06:00:13.819Z,9.43
2023-01-17T06:02:40.192Z,8.27
2023-01-17T06:05:06.795Z,8.93
2023-01-17T06:07:33.224Z,6.65
2023-01-17T06:09:59.649Z,5.18
2023-01-17T06:12:25.927Z,24.40
2023-01-17T06:14:52.267Z,12.52
2023-01-17T06:17:18.581Z,10.80
2023-01-17T06:19:45.487Z,10.65
2023-01-17T06:22:11.748Z,12.35
2023-01-17T06:24:37.975Z,9.70
2023-01-17T06:27:04.260Z,4.85
2023-01-17T06:29:30.624Z,17.13
2023-01-17T06:31:56.895Z,14.25
2023-01-17T06:34:23.187Z,5.93
2023-01-17T06:36:49.491Z,9.68
2023-01-17T06:39:15.778Z,6.32
2023-01-17T06:41:42.992Z,6.80
2023-01-17T06:44:09.656Z,6.35
2023-01-17T06:46:36.082Z,10.85
2023-01-17T06:49:02.404Z,7.68
2023-01-17T06:51:28.629Z,14.27
2023-01-17T06:53:54.919Z,8.43
2023-01-17T06:56:21.221Z,10.73
2023-01-17T06:58:50.976Z,14.18
2023-01-17T07:01:17.772Z,8.73
2023-01-17T07:03:44.557Z,10.40
2023-01-17T07:06:10.814Z,16.00
2023-01-17T07:08:37.242Z,16.98
2023-01-17T07:11:04.672Z,21.73
2023-01-17T07:13:36.149Z,13.00
2023-01-17T07:16:03.660Z,11.88
2023-01-17T07:18:30.340Z,11.95
2023-01-17T07:20:56.575Z,13.98
2023-01-17T07:23:23.919Z,11.05
2023-01-17T07:25:53.987Z,15.10
2023-01-17T07:28:20.257Z,15.07
2023-01-17T07:30:46.617Z,10.90
2023-01-17T07:33:12.852Z,9.73
2023-01-17T07:35:39.164Z,17.10
2023-01-17T07:38:05.857Z,11.52
2023-01-17T07:40:33.532Z,15.68
2023-01-17T07:43:14.671Z,18.48
2023-01-17T07:45:44.603Z,21.85
2023-01-17T07:48:11.361Z,20.67
2023-01-17T07:50:38.046Z,26.33
2023-01-17T07:53:04.551Z,13.52
2023-01-17T07:55:31.046Z,23.00
2023-01-17T07:57:57.361Z,22.90
2023-01-17T08:00:26.134Z,9.80
2023-01-17T08:02:55.276Z,17.40
2023-01-17T08:05:21.508Z,9.82
2023-01-17T08:07:47.759Z,12.13
2023-01-17T08:10:17.847Z,7.75
2023-01-17T08:12:47.762Z,8.73
2023-01-17T08:15:18.012Z,18.90
2023-01-17T08:17:48.128Z,24.23
2023-01-17T08:20:14.965Z,12.27
2023-01-17T08:22:41.332Z,12.32
2023-01-17T08:25:07.973Z,9.52
2023-01-17T08:27:36.174Z,13.88
2023-01-17T08:30:02.721Z,13.82
2023-01-17T08:32:28.941Z,10.38
2023-01-17T08:34:56.529Z,9.00
2023-01-17T08:37:22.878Z,17.50
2023-01-17T08:39:49.579Z,10.23
2023-01-17T08:42:15.977Z,10.35
2023-01-17T08:44:43.485Z,13.57
2023-01-17T08:47:09.948Z,10.15
2023-01-17T08:49:36.166Z,11.48
2023-01-17T08:52:02.445Z,10.18
2023-01-17T08:54:28.931Z,11.30
2023-01-17T08:56:55.743Z,7.13
2023-01-17T08:59:22.377Z,21.77
2023-01-17T09:01:48.769Z,13.98
2023-01-17T09:04:15.428Z,7.40
2023-01-17T09:06:42.982Z,13.65
2023-01-17T09:09:11.154Z,6.07
2023-01-17T09:11:37.930Z,13.02
2023-01-17T09:14:04.252Z,9.18
2023-01-17T09:16:30.954Z,17.85
2023-01-17T09:18:57.961Z,12.45
2023-01-17T09:21:24.991Z,9.85
2023-01-17T09:23:51.539Z,9.57
2023-01-17T09:26:20.409Z,15.98
2023-01-17T09:28:46.760Z,9.32
2023-01-17T09:31:13.092Z,11.88
2023-01-17T09:33:42.582Z,18.70
2023-01-17T09:36:09.566Z,9.63
2023-01-17T09:38:36.296Z,13.90
2023-01-17T09:41:02.816Z,9.68
2023-01-17T09:43:41.244Z,15.85
2023-01-17T09:46:14.056Z,10.73
2023-01-17T09:48:40.655Z,11.55
2023-01-17T09:51:14.269Z,17.92
2023-01-17T09:53:41.666Z,8.80
2023-01-17T09:56:11.753Z,9.13
2023-01-17T09:58:46.432Z,9.60
2023-01-17T10:01:29.673Z,11.90
2023-01-17T10:04:05.037Z,15.77
2023-01-17T10:06:31.513Z,16.20
2023-01-17T10:09:08.015Z,16.30
2023-01-17T10:11:46.497Z,13.13
2023-01-17T10:14:31.309Z,12.60
2023-01-17T10:17:06.578Z,12.77
2023-01-17T10:19:48.031Z,15.38
2023-01-17T10:22:39.515Z,15.88
2023-01-17T10:25:21.091Z,10.52
2023-01-17T10:28:13.542Z,11.45
2023-01-17T10:30:45.049Z,12.77
2023-01-17T10:33:17.590Z,10.32
2023-01-17T10:35:52.983Z,12.10
2023-01-17T10:38:20.517Z,10.07
2023-01-17T10:40:54.786Z,10.65
2023-01-17T10:43:44.175Z,8.27
2023-01-17T10:46:21.868Z,9.05
2023-01-17T10:48:50.509Z,10.95
2023-01-17T10:51:20.135Z,11.27
2023-01-17T10:53:49.945Z,9.05
2023-01-17T10:56:17.152Z,9.10
2023-01-17T10:58:43.505Z,8.82
2023-01-17T11:01:16.740Z,10.15
2023-01-17T11:03:44.982Z,18.80
2023-01-17T11:06:16.223Z,13.85
2023-01-17T11:08:53.098Z,12.80
2023-01-17T11:11:20.748Z,11.70
2023-01-17T11:13:48.459Z,10.55
2023-01-17T11:16:22.889Z,13.20
2023-01-17T11:19:05.228Z,11.85
2023-01-17T11:21:32.060Z,10.45
2023-01-17T11:24:08.432Z,25.98
2023-01-17T11:26:36.002Z,8.15
2023-01-17T11:29:22.559Z,7.05
2023-01-17T11:31:48.814Z,10.38
2023-01-17T11:34:17.294Z,8.75
2023-01-17T11:36:43.885Z,7.85
2023-01-17T11:39:30.399Z,7.65
2023-01-17T11:41:56.799Z,11.45
2023-01-17T11:44:30.495Z,7.40
2023-01-17T11:47:11.869Z,13.95
2023-01-17T11:49:38.991Z,10.45
2023-01-17T11:52:16.339Z,14.45
2023-01-17T11:54:44.338Z,9.10
2023-01-17T11:57:34.224Z,11.30
2023-01-17T12:00:15.475Z,9.27
2023-01-17T12:03:00.251Z,6.18
2023-01-17T12:05:38.771Z,5.57
2023-01-17T12:08:05.046Z,5.80
2023-01-17T12:10:34.186Z,5.75
2023-01-17T12:13:25.456Z,4.75
2023-01-17T12:15:54.755Z,7.93
2023-01-17T12:18:36.212Z,7.28
2023-01-17T12:21:12.286Z,6.68
2023-01-17T12:23:41.795Z,4.97
2023-01-17T12:26:26.393Z,3.60
2023-01-17T12:28:52.596Z,5.43
2023-01-17T12:31:18.872Z,4.45
2023-01-17T12:33:45.731Z,4.50
2023-01-17T12:36:31.061Z,5.85
2023-01-17T12:38:58.640Z,4.95
2023-01-17T12:41:28.695Z,3.45
2023-01-17T12:43:59.529Z,4.25
2023-01-17T12:46:43.149Z,4.80
2023-01-17T12:49:38.641Z,2.85
2023-01-17T12:52:19.154Z,6.95
2023-01-17T12:54:47.819Z,4.50
2023-01-17T12:57:14.248Z,3.75
2023-01-17T12:59:58.260Z,3.05
2023-01-17T13:02:43.344Z,3.80
2023-01-17T13:05:18.443Z,4.32
2023-01-17T13:07:49.508Z,9.80
2023-01-17T13:10:22.188Z,10.65
2023-01-17T13:12:49.521Z,6.18
2023-01-17T13:15:17.323Z,3.17
2023-01-17T13:17:48.491Z,2.30
2023-01-17T13:20:19.574Z,7.20
2023-01-17T13:22:46.038Z,5.55
2023-01-17T13:25:12.255Z,5.25
2023-01-17T13:27:46.533Z,4.20
2023-01-17T13:30:16.046Z,10.52
2023-01-17T13:32:54.421Z,2.50
2023-01-17T13:35:26.632Z,8.18
2023-01-17T13:38:07.897Z,5.47
2023-01-17T13:40:54.220Z,5.25
2023-01-17T13:43:25.864Z,6.60
2023-01-17T13:45:53.479Z,2.83
2023-01-17T13:48:19.752Z,4.47
2023-01-17T13:50:50.386Z,3.60
2023-01-17T13:55:46.742Z,2.72
2023-01-17T13:58:31.576Z,3.88
2023-01-17T14:00:57.962Z,9.30
2023-01-17T14:04:02.116Z,6.88
2023-01-17T14:06:46.417Z,2.22
2023-01-17T14:09:12.716Z,2.80
2023-01-17T14:11:53.168Z,3.70
2023-01-17T14:14:38.114Z,1.52
2023-01-17T14:17:16.265Z,5.93
2023-01-17T14:19:45.542Z,3.13
2023-01-17T14:22:20.908Z,8.00
2023-01-17T14:25:09.618Z,7.35
2023-01-17T14:27:44.798Z,5.75
2023-01-17T14:30:17.337Z,5.70
2023-01-17T14:32:58.600Z,5.18
2023-01-17T14:35:27.698Z,2.45
2023-01-17T14:37:54.266Z,4.20
2023-01-17T14:40:21.908Z,2.55
2023-01-17T14:42:53.704Z,2.47
2023-01-17T14:45:23.869Z,8.70
2023-01-17T14:47:51.471Z,6.30
2023-01-17T14:50:17.748Z,9.65
2023-01-17T14:52:47.053Z,4.75
2023-01-17T14:55:20.265Z,3.20
2023-01-17T14:57:53.689Z,5.93
2023-01-17T15:00:20.372Z,3.10
2023-01-17T15:02:48.029Z,9.43
2023-01-17T15:05:15.708Z,9.43
2023-01-17T15:07:43.579Z,6.10
2023-01-17T15:10:14.705Z,5.88
2023-01-17T15:12:46.397Z,5.50
2023-01-17T15:15:32.097Z,4.88
2023-01-17T15:18:08.113Z,6.50
2023-01-17T15:20:34.656Z,6.05
2023-01-17T15:23:00.989Z,9.05
2023-01-17T15:25:27.370Z,9.90
2023-01-17T15:27:53.659Z,11.00
2023-01-17T15:30:22.157Z,12.48
2023-01-17T15:32:49.358Z,5.15
2023-01-17T15:35:17.113Z,6.00
2023-01-17T15:37:43.391Z,7.28
2023-01-17T15:40:19.701Z,9.63
2023-01-17T15:42:47.624Z,9.68
2023-01-17T15:45:19.929Z,14.02
2023-01-17T15:47:46.522Z,6.45
2023-01-17T15:50:28.518Z,8.82
2023-01-17T15:52:56.459Z,6.53
2023-01-17T15:55:30.479Z,6.85
2023-01-17T15:57:56.927Z,5.43
2023-01-17T16:00:26.693Z,3.20
2023-01-17T16:02:58.743Z,7.60
2023-01-17T16:05:25.684Z,5.63
2023-01-17T16:08:16.064Z,12.60
2023-01-17T16:10:43.123Z,18.30
2023-01-17T16:13:10.741Z,13.52
2023-01-17T16:15:37.902Z,7.75
2023-01-17T16:18:06.583Z,8.65
2023-01-17T16:20:34.512Z,7.40
2023-01-17T16:23:00.806Z,38.22
2023-01-17T16:25:32.241Z,36.88
2023-01-17T16:27:59.215Z,9.52
2023-01-17T16:30:25.471Z,9.80
2023-01-17T16:32:51.830Z,7.88
2023-01-17T16:35:22.440Z,7.45
2023-01-17T16:37:49.849Z,7.35
2023-01-17T16:40:16.666Z,10.65
2023-01-17T16:42:43.403Z,10.82
2023-01-17T16:45:10.663Z,6.82
2023-01-17T16:47:37.398Z,9.07
2023-01-17T16:50:03.919Z,8.98
2023-01-17T16:52:30.248Z,7.07
2023-01-17T16:54:56.565Z,7.25
2023-01-17T16:57:22.946Z,8.25
2023-01-17T16:59:50.861Z,7.30
2023-01-17T17:02:18.530Z,7.28
2023-01-17T17:04:45.014Z,8.68
2023-01-17T17:07:11.351Z,5.03
2023-01-17T17:09:37.917Z,8.75
2023-01-17T17:12:05.281Z,16.55
2023-01-17T17:14:31.575Z,16.42
2023-01-17T17:16:57.846Z,18.77
2023-01-17T17:19:24.386Z,13.02
2023-01-17T17:21:50.718Z,17.88
2023-01-17T17:24:19.829Z,10.90
2023-01-17T17:26:46.147Z,14.15
2023-01-17T17:29:14.475Z,10.20
2023-01-17T17:31:42.030Z,11.75
2023-01-17T17:34:10.518Z,11.25
2023-01-17T17:36:36.818Z,18.65
2023-01-17T17:39:04.759Z,14.23
2023-01-17T17:41:32.119Z,25.70
2023-01-17T17:43:59.897Z,13.90
2023-01-17T17:46:27.290Z,12.70
2023-01-17T17:48:53.622Z,15.05
2023-01-17T17:51:28.821Z,14.05
2023-01-17T17:53:56.074Z,19.77
2023-01-17T17:56:23.522Z,15.85
2023-01-17T17:58:49.919Z,19.13
2023-01-17T18:01:16.528Z,13.27
2023-01-17T18:03:42.944Z,9.23
2023-01-17T18:06:10.268Z,10.15
2023-01-17T18:08:37.182Z,18.63
2023-01-17T18:11:05.076Z,12.85
2023-01-17T18:13:31.931Z,26.27
2023-01-17T18:16:02.112Z,46.70
2023-01-17T18:18:28.708Z,31.33
2023-01-17T18:20:55.013Z,35.75
2023-01-17T18:23:21.349Z,38.08
2023-01-17T18:25:48.057Z,27.30
2023-01-17T18:28:14.588Z,21.60
2023-01-17T18:30:40.892Z,31.55
2023-01-17T18:33:07.180Z,39.55
2023-01-17T18:35:33.479Z,27.08
2023-01-17T18:37:59.780Z,50.70
2023-01-17T18:40:26.068Z,36.85
2023-01-17T18:42:52.750Z,23.30
2023-01-17T18:45:19.189Z,24.63
2023-01-17T18:47:45.489Z,17.25
2023-01-17T18:50:11.722Z,28.58
2023-01-17T18:52:38.699Z,19.20
2023-01-17T18:55:05.145Z,36.15
2023-01-17T18:57:31.460Z,31.45
2023-01-17T18:59:57.745Z,27.23
2023-01-17T19:02:24.135Z,26.77
2023-01-17T19:04:50.393Z,49.35
2023-01-17T19:07:16.668Z,60.60
2023-01-17T19:09:44.036Z,64.05
2023-01-17T19:12:10.352Z,70.95
2023-01-17T19:14:36.676Z,21.33
2023-01-17T19:17:03.053Z,15.18
2023-01-17T19:19:29.341Z,10.23
2023-01-17T19:21:55.623Z,20.40
2023-01-17T19:24:21.912Z,19.17
2023-01-17T19:26:51.070Z,25.27
2023-01-17T19:29:17.379Z,40.95
2023-01-17T19:31:43.970Z,38.35
2023-01-17T19:34:11.088Z,24.95
2023-01-17T19:36:37.974Z,15.80
2023-01-17T19:39:06.721Z,15.52
2023-01-17T19:41:34.323Z,16.08
2023-01-17T19:44:02.168Z,10.05
2023-01-17T19:46:28.836Z,13.57
2023-01-17T19:48:55.881Z,12.57
2023-01-17T19:51:22.805Z,10.43
2023-01-17T19:53:49.183Z,14.43
2023-01-17T19:56:19.973Z,14.68
2023-01-17T19:58:46.561Z,9.43
2023-01-17T20:01:14.687Z,10.95
2023-01-17T20:03:44.262Z,11.73
2023-01-17T20:06:12.075Z,12.38
2023-01-17T20:08:38.607Z,14.13
2023-01-17T20:11:05.907Z,18.10
2023-01-17T20:13:32.406Z,18.13
2023-01-17T20:16:05.346Z,15.38
2023-01-17T20:18:31.949Z,19.00
2023-01-17T20:21:02.399Z,20.85
2023-01-17T20:23:28.783Z,12.65
2023-01-17T20:26:04.637Z,16.48
2023-01-17T20:28:35.402Z,14.70
2023-01-17T20:33:27.843Z,15.10
2023-01-17T20:36:09.136Z,12.50
2023-01-17T20:38:46.081Z,19.23
2023-01-17T20:41:32.325Z,14.70
2023-01-17T20:43:59.839Z,18.50
2023-01-17T20:46:27.408Z,17.65
2023-01-17T20:48:56.006Z,23.73
2023-01-17T20:51:23.158Z,15.02
2023-01-17T20:53:53.449Z,12.88
2023-01-17T20:56:19.743Z,17.52
2023-01-17T20:58:46.396Z,13.48
2023-01-17T21:01:13.739Z,16.73
2023-01-17T21:03:40.169Z,14.65
2023-01-17T21:06:07.551Z,18.90
2023-01-17T21:08:35.027Z,21.75
2023-01-17T21:11:01.599Z,18.58
2023-01-17T21:13:28.171Z,17.40
2023-01-17T21:15:54.744Z,17.90
2023-01-17T21:18:22.320Z,18.42
2023-01-17T21:20:49.099Z,22.00
2023-01-17T21:23:18.624Z,21.92
2023-01-17T21:25:55.661Z,27.55
2023-01-17T21:28:22.751Z,23.17
2023-01-17T21:30:52.139Z,18.75
2023-01-17T21:33:19.271Z,18.63
2023-01-17T21:35:45.577Z,18.52
2023-01-17T21:38:12.776Z,19.52
2023-01-17T21:40:39.504Z,18.80
2023-01-17T21:43:05.811Z,16.75
2023-01-17T21:45:35.669Z,17.17
2023-01-17T21:48:02.085Z,19.47
2023-01-17T21:50:33.395Z,22.33
2023-01-17T21:53:00.115Z,20.98
2023-01-17T21:55:45.117Z,22.40
2023-01-17T21:58:36.065Z,23.13
2023-01-17T22:01:10.969Z,28.85
2023-01-17T22:03:37.530Z,21.92
2023-01-17T22:06:04.856Z,18.77
2023-01-17T22:08:32.100Z,17.50
2023-01-17T22:11:02.050Z,16.63
2023-01-17T22:13:30.244Z,18.08
2023-01-17T22:16:00.374Z,20.95
2023-01-17T22:18:27.088Z,26.67
2023-01-17T22:20:53.374Z,13.52
2023-01-17T22:23:20.458Z,15.38
2023-01-17T22:25:46.891Z,14.63
2023-01-17T22:28:13.347Z,15.82
2023-01-17T22:30:39.669Z,10.90
2023-01-17T22:33:06.048Z,13.20
2023-01-17T22:35:32.634Z,9.32
2023-01-17T22:37:58.991Z,16.45
2023-01-17T22:40:26.062Z,14.20
2023-01-17T22:42:52.448Z,15.27
2023-01-17T22:45:19.266Z,23.08
2023-01-17T22:47:45.512Z,18.85
2023-01-17T22:50:12.252Z,19.02
2023-01-17T22:52:38.557Z,17.75
2023-01-17T22:55:05.306Z,17.77
2023-01-17T22:57:31.599Z,23.27
2023-01-17T22:59:57.828Z,15.02
2023-01-17T23:02:24.175Z,21.98
2023-01-17T23:04:50.507Z,16.05
2023-01-17T23:07:16.840Z,22.75
2023-01-17T23:09:43.088Z,21.75
2023-01-17T23:12:09.453Z,22.77
2023-01-17T23:14:54.586Z,16.58
2023-01-17T23:17:39.807Z,16.13
2023-01-17T23:20:07.815Z,16.42
2023-01-17T23:22:34.315Z,15.23
2023-01-17T23:25:14.211Z,20.05
2023-01-17T23:28:00.616Z,19.27
2023-01-17T23:30:48.013Z,19.50
2023-01-17T23:33:15.103Z,13.35
2023-01-17T23:35:42.840Z,23.90
2023-01-17T23:38:30.981Z,17.23
2023-01-17T23:41:26.072Z,15.48
2023-01-17T23:43:53.458Z,16.40
2023-01-17T23:46:20.180Z,19.88
2023-01-17T23:48:46.666Z,18.63
2023-01-17T23:51:13.039Z,16.27
2023-01-17T23:53:39.776Z,13.30
2023-01-17T23:56:07.304Z,15.88
2023-01-17T23:58:33.937Z,18.40
